Time;durP1;ratioP1;P1;durP2;ratioP2;P2;SDS_P1;SDS_P2;PMS_P1;PMS_P2;Temp;Humidity;BMP_temperature;BMP_pressure;BME280_temperature;BME280_humidity;BME280_pressure;Samples;Min_cycle;Max_cycle;Signal;HPM_P1;HPM_P2
2022/03/02 00:02:14;;;;;;;;;;;;;;;7.72;52.00;102552.59;5015274;28;19924;-70
2022/03/02 00:04:40;;;;;;;;;;;;;;;7.65;51.61;102554.00;5015391;28;19967;-69
2022/03/02 00:07:05;;;;;;;;;;;;;;;7.60;52.38;102552.88;5015262;28;20388;-70
2022/03/02 00:09:31;;;;;;;;;;;;;;;7.53;52.12;102546.38;5015208;28;19913;-70
2022/03/02 00:11:59;;;;;;;;;;;;;;;7.45;52.07;102549.44;5015184;28;20290;-69
2022/03/02 00:14:24;;;;;;;;;;;;;;;7.37;52.00;102554.34;5015163;28;19913;-69
2022/03/02 00:16:55;;;;;;;;;;;;;;;7.30;52.62;102559.19;5014452;28;19920;-69
2022/03/02 00:19:20;;;;;;;;;;;;;;;7.24;52.61;102559.78;5014872;28;19949;-70
2022/03/02 00:21:45;;;;;;;;;;;;;;;7.20;52.99;102557.84;5014811;28;19963;-69
2022/03/02 00:24:10;;;;;;;;;;;;;;;7.17;52.76;102555.03;5014857;28;19913;-69
2022/03/02 00:26:36;;;;;;;;;;;;;;;7.15;52.88;102548.78;5014798;28;19968;-69
2022/03/02 00:29:01;;;;;;;;;;;;;;;7.15;52.92;102551.41;5014798;28;19967;-70
2022/03/02 00:31:28;;;;;;;;;;;;;;;7.15;53.35;102554.03;5014888;28;19940;-69
2022/03/02 00:33:53;;;;;;;;;;;;;;;7.12;53.25;102556.53;5014625;28;19921;-70
2022/03/02 00:36:20;;;;;;;;;;;;;;;7.09;52.83;102554.63;5014484;28;19920;-70
2022/03/02 00:38:45;;;;;;;;;;;;;;;7.09;53.31;102553.72;5014511;28;19913;-69
2022/03/02 00:41:10;;;;;;;;;;;;;;;7.07;53.53;102552.75;5014593;28;19920;-70
2022/03/02 00:43:35;;;;;;;;;;;;;;;7.09;53.32;102544.13;5014454;28;19948;-69
2022/03/02 00:46:01;;;;;;;;;;;;;;;7.12;53.23;102544.28;5014634;28;20388;-69
2022/03/02 00:48:26;;;;;;;;;;;;;;;7.15;53.16;102540.88;4996669;28;20339;-69
2022/03/02 00:50:52;;;;;;;;;;;;;;;7.19;52.82;102540.22;5014225;28;19913;-69
2022/03/02 00:53:17;;;;;;;;;;;;;;;7.17;52.66;102542.78;5014363;28;19972;-69
2022/03/02 00:55:43;;;;;;;;;;;;;;;7.15;53.03;102540.88;5014380;28;19921;-70
2022/03/02 00:58:09;;;;;;;;;;;;;;;7.08;52.57;102536.16;5014217;28;20019;-69
2022/03/02 01:00:35;;;;;;;;;;;;;;;7.05;52.24;102536.00;5014235;28;19929;-69
2022/03/02 01:03:01;;;;;;;;;;;;;;;7.07;52.34;102532.63;5014438;28;19913;-70
2022/03/02 01:05:27;;;;;;;;;;;;;;;7.05;52.90;102533.38;5014159;28;19920;-69
2022/03/02 01:07:52;;;;;;;;;;;;;;;7.00;52.75;102530.50;5014076;28;20005;-69
2022/03/02 01:10:18;;;;;;;;;;;;;;;7.00;52.34;102528.75;5014253;28;19922;-69
2022/03/02 01:12:49;;;;;;;;;;;;;;;7.02;52.56;102527.13;5014090;28;20267;-69
2022/03/02 01:15:14;;;;;;;;;;;;;;;7.07;52.15;102524.75;5014110;28;19913;-69
2022/03/02 01:17:40;;;;;;;;;;;;;;;7.06;52.58;102524.66;5013831;28;20011;-69
2022/03/02 01:20:07;;;;;;;;;;;;;;;7.03;52.57;102522.78;5014117;28;19914;-69
2022/03/02 01:22:32;;;;;;;;;;;;;;;7.01;52.34;102524.41;5014128;28;19913;-69
2022/03/02 01:24:59;;;;;;;;;;;;;;;6.96;53.06;102518.91;5014150;28;19971;-69
2022/03/02 01:27:24;;;;;;;;;;;;;;;6.89;52.62;102516.78;5013914;28;20278;-69
2022/03/02 01:29:51;;;;;;;;;;;;;;;6.85;52.75;102519.16;5012927;28;20473;-69
2022/03/02 01:32:17;;;;;;;;;;;;;;;6.75;53.28;102516.06;5013912;28;19916;-69
2022/03/02 01:34:42;;;;;;;;;;;;;;;6.70;53.17;102516.66;5013559;28;19913;-69
2022/03/02 01:37:08;;;;;;;;;;;;;;;6.64;53.31;102506.72;5013703;28;20012;-69
2022/03/02 01:39:33;;;;;;;;;;;;;;;6.64;53.42;102509.34;5013636;28;20045;-69
2022/03/02 01:41:58;;;;;;;;;;;;;;;6.65;53.43;102505.00;5013856;28;19948;-69
2022/03/02 01:44:24;;;;;;;;;;;;;;;6.66;53.66;102509.41;5013703;28;20366;-69
2022/03/02 01:46:55;;;;;;;;;;;;;;;6.72;53.31;102508.03;5013678;28;19913;-69
2022/03/02 01:49:20;;;;;;;;;;;;;;;6.76;52.90;102504.72;5013530;28;19920;-69
2022/03/02 01:51:45;;;;;;;;;;;;;;;6.76;52.91;102509.06;5013741;28;19914;-69
2022/03/02 01:54:10;;;;;;;;;;;;;;;6.78;52.66;102507.44;5013699;28;20281;-69
2022/03/02 01:56:36;;;;;;;;;;;;;;;6.78;52.67;102491.69;5013451;28;19920;-69
2022/03/02 01:59:02;;;;;;;;;;;;;;;6.80;52.92;102495.28;5013597;28;19914;-70
2022/03/02 02:01:27;;;;;;;;;;;;;;;6.81;52.30;102489.22;5013558;28;19914;-70
2022/03/02 02:03:52;;;;;;;;;;;;;;;6.81;51.92;102499.75;5013827;28;19921;-69
2022/03/02 02:06:19;;;;;;;;;;;;;;;6.78;51.65;102492.59;5015504;28;20386;-69
2022/03/02 02:08:45;;;;;;;;;;;;;;;6.76;51.91;102493.31;5014139;28;19913;-69
2022/03/02 02:11:12;;;;;;;;;;;;;;;6.76;52.31;102488.06;5013799;28;20366;-69
2022/03/02 02:13:38;;;;;;;;;;;;;;;6.78;51.62;102481.19;5013552;28;19913;-69
2022/03/02 02:16:04;;;;;;;;;;;;;;;6.81;52.56;102480.41;5013556;28;19967;-69
2022/03/02 02:18:30;;;;;;;;;;;;;;;6.86;51.86;102473.69;5013280;28;19913;-69
2022/03/02 02:21:05;;;;;;;;;;;;;;;6.88;51.85;102477.28;5013093;28;20489;-69
2022/03/02 02:23:31;;;;;;;;;;;;;;;6.90;51.90;102480.91;5013363;28;20282;-69
2022/03/02 02:25:56;;;;;;;;;;;;;;;6.87;51.37;102470.25;5013309;28;19924;-69
2022/03/02 02:28:24;;;;;;;;;;;;;;;6.85;51.56;102479.75;5013282;28;19921;-69
2022/03/02 02:30:50;;;;;;;;;;;;;;;6.84;51.57;102472.69;5013236;28;19919;-69
2022/03/02 02:33:15;;;;;;;;;;;;;;;6.84;51.70;102465.72;5013124;28;19987;-69
2022/03/02 02:35:41;;;;;;;;;;;;;;;6.84;51.72;102464.81;5013135;28;20283;-69
2022/03/02 02:38:07;;;;;;;;;;;;;;;6.83;52.03;102465.66;5013222;28;19913;-69
2022/03/02 02:40:33;;;;;;;;;;;;;;;6.78;51.09;102470.66;5014092;28;19921;-69
2022/03/02 02:42:59;;;;;;;;;;;;;;;6.71;51.79;102460.66;5016776;28;19921;-69
2022/03/02 02:45:24;;;;;;;;;;;;;;;6.71;51.67;102465.91;5016808;28;19914;-70
2022/03/02 02:47:54;;;;;;;;;;;;;;;6.71;51.11;102461.56;5016701;28;20346;-68
2022/03/02 02:50:21;;;;;;;;;;;;;;;6.70;51.30;102448.34;5016401;28;19920;-67
2022/03/02 02:52:47;;;;;;;;;;;;;;;6.71;51.54;102453.66;5016631;28;19996;-68
2022/03/02 02:55:13;;;;;;;;;;;;;;;6.72;51.24;102457.19;5016829;28;19919;-68
2022/03/02 02:57:39;;;;;;;;;;;;;;;6.73;51.06;102453.78;5016377;28;20297;-68
2022/03/02 03:00:07;;;;;;;;;;;;;;;6.73;51.59;102457.28;5016615;28;20007;-68
2022/03/02 03:02:32;;;;;;;;;;;;;;;6.72;51.43;102457.19;5016414;28;19936;-67
2022/03/02 03:04:59;;;;;;;;;;;;;;;6.70;51.22;102458.84;5016307;28;19917;-68
2022/03/02 03:07:25;;;;;;;;;;;;;;;6.70;51.45;102454.50;5016559;28;19920;-68
2022/03/02 03:09:51;;;;;;;;;;;;;;;6.67;51.30;102454.31;5016603;28;19913;-68
2022/03/02 03:12:16;;;;;;;;;;;;;;;6.66;51.68;102454.25;5016283;28;20357;-68
2022/03/02 03:14:41;;;;;;;;;;;;;;;6.69;51.35;102454.44;5016370;28;19921;-68
2022/03/02 03:17:07;;;;;;;;;;;;;;;6.68;51.39;102458.78;5016235;28;19917;-67
2022/03/02 03:19:32;;;;;;;;;;;;;;;6.68;51.54;102448.28;5015975;28;19913;-68
2022/03/02 03:22:05;;;;;;;;;;;;;;;6.70;51.51;102445.72;5016033;28;19964;-68
2022/03/02 03:24:30;;;;;;;;;;;;;;;6.69;50.86;102446.56;5016062;28;19909;-68
2022/03/02 03:26:56;;;;;;;;;;;;;;;6.65;51.45;102449.84;5016486;28;19913;-68
2022/03/02 03:29:21;;;;;;;;;;;;;;;6.62;51.41;102452.28;5016945;28;19909;-68
2022/03/02 03:31:46;;;;;;;;;;;;;;;6.59;51.65;102453.03;5016506;28;19948;-68
2022/03/02 03:34:12;;;;;;;;;;;;;;;6.58;51.28;102451.22;5015953;28;19913;-68
2022/03/02 03:36:38;;;;;;;;;;;;;;;6.57;51.60;102453.78;5015760;28;19953;-68
2022/03/02 03:39:03;;;;;;;;;;;;;;;6.52;51.27;102445.66;5015932;28;19917;-68
2022/03/02 03:41:28;;;;;;;;;;;;;;;6.49;51.23;102450.75;5015705;28;19936;-67
2022/03/02 03:43:53;;;;;;;;;;;;;;;6.47;51.58;102450.66;5015688;28;19959;-67
2022/03/02 03:46:19;;;;;;;;;;;;;;;6.49;51.67;102445.50;4997974;28;20385;-68
2022/03/02 03:48:44;;;;;;;;;;;;;;;6.53;51.45;102443.09;5015601;28;19921;-68
2022/03/02 03:51:22;;;;;;;;;;;;;;;6.53;51.82;102445.72;5015333;28;19914;-67
2022/03/02 03:53:47;;;;;;;;;;;;;;;6.48;51.05;102435.81;5014862;28;20374;-67
2022/03/02 03:56:12;;;;;;;;;;;;;;;6.48;51.53;102443.69;5015493;28;19921;-68
2022/03/02 03:58:37;;;;;;;;;;;;;;;6.48;51.41;102441.97;5015232;28;19922;-68
2022/03/02 04:01:02;;;;;;;;;;;;;;;6.47;51.44;102439.28;5015315;28;20354;-68
2022/03/02 04:03:28;;;;;;;;;;;;;;;6.45;51.73;102438.28;5015401;28;19960;-68
2022/03/02 04:05:53;;;;;;;;;;;;;;;6.45;51.58;102439.16;5015085;28;20259;-67
2022/03/02 04:08:18;;;;;;;;;;;;;;;6.48;51.61;102443.69;4997719;28;20378;-67
2022/03/02 04:10:45;;;;;;;;;;;;;;;6.46;51.50;102445.31;5015285;28;19914;-67
2022/03/02 04:13:10;;;;;;;;;;;;;;;6.39;51.47;102435.34;5015100;28;19913;-68
2022/03/02 04:15:37;;;;;;;;;;;;;;;6.27;51.48;102428.59;5015045;28;19923;-67
2022/03/02 04:18:06;;;;;;;;;;;;;;;6.22;51.86;102435.31;5015055;28;19960;-67
2022/03/02 04:20:35;;;;;;;;;;;;;;;6.23;51.42;102428.34;5014707;28;19972;-67
2022/03/02 04:23:00;;;;;;;;;;;;;;;6.20;51.70;102415.94;5014804;28;19948;-68
2022/03/02 04:25:26;;;;;;;;;;;;;;;6.18;51.94;102425.47;5014994;28;19963;-67
2022/03/02 04:27:51;;;;;;;;;;;;;;;6.17;51.72;102413.19;5014856;28;19913;-67
2022/03/02 04:30:16;;;;;;;;;;;;;;;6.14;51.90;102412.13;5014841;28;19932;-67
2022/03/02 04:32:42;;;;;;;;;;;;;;;6.15;51.71;102409.56;5014749;28;19913;-68
2022/03/02 04:35:08;;;;;;;;;;;;;;;6.12;51.48;102409.38;5014724;28;19917;-68
2022/03/02 04:37:35;;;;;;;;;;;;;;;6.09;51.93;102409.25;5014589;28;19924;-67
2022/03/02 04:40:00;;;;;;;;;;;;;;;6.07;51.86;102405.63;5014638;28;19914;-68
2022/03/02 04:42:26;;;;;;;;;;;;;;;6.08;51.79;102402.19;5014588;28;19920;-68
2022/03/02 04:44:51;;;;;;;;;;;;;;;6.08;52.15;102399.56;5014453;28;20302;-67
2022/03/02 04:47:16;;;;;;;;;;;;;;;6.07;51.94;102397.75;5014834;28;20012;-68
2022/03/02 04:49:41;;;;;;;;;;;;;;;6.07;52.12;102396.84;5014374;28;20363;-67
2022/03/02 04:52:08;;;;;;;;;;;;;;;6.08;52.25;102398.63;5014176;28;20290;-68
2022/03/02 04:57:17;;;;;;;;;;;;;;;6.15;52.13;102388.56;5014213;28;20421;-68
2022/03/02 04:59:42;;;;;;;;;;;;;;;6.14;51.71;102397.25;5014192;28;19913;-68
2022/03/02 05:02:08;;;;;;;;;;;;;;;6.13;52.12;102386.69;5014278;28;19917;-68
2022/03/02 05:04:33;;;;;;;;;;;;;;;6.13;51.86;102384.06;5013982;28;19963;-68
2022/03/02 05:06:59;;;;;;;;;;;;;;;6.10;51.36;102392.66;5013988;28;20380;-68
2022/03/02 05:09:25;;;;;;;;;;;;;;;6.08;51.58;102389.06;5014107;28;19913;-68
2022/03/02 05:11:50;;;;;;;;;;;;;;;6.09;51.69;102395.22;5014182;28;19967;-68
2022/03/02 05:14:15;;;;;;;;;;;;;;;6.06;51.17;102389.81;5014092;28;19936;-68
2022/03/02 05:16:40;;;;;;;;;;;;;;;6.00;51.56;102388.66;5014064;28;19913;-68
2022/03/02 05:19:06;;;;;;;;;;;;;;;5.96;51.29;102386.69;5014034;28;20027;-67
2022/03/02 05:21:31;;;;;;;;;;;;;;;5.91;51.08;102382.88;5013835;28;19955;-67
2022/03/02 05:23:56;;;;;;;;;;;;;;;5.91;51.35;102389.81;5014035;28;19913;-67
2022/03/02 05:26:21;;;;;;;;;;;;;;;5.89;51.16;102387.13;5013975;28;19913;-68
2022/03/02 05:28:47;;;;;;;;;;;;;;;5.86;51.83;102384.31;5013881;28;19913;-68
2022/03/02 05:31:12;;;;;;;;;;;;;;;5.83;51.66;102378.94;5013811;28;19917;-68
2022/03/02 05:33:37;;;;;;;;;;;;;;;5.77;51.98;102375.97;5013949;28;19917;-67
2022/03/02 05:36:03;;;;;;;;;;;;;;;5.76;52.32;102372.44;5013536;28;19920;-67
2022/03/02 05:38:28;;;;;;;;;;;;;;;5.80;52.02;102375.25;5013702;28;19920;-68
2022/03/02 05:40:53;;;;;;;;;;;;;;;5.85;51.76;102371.13;5013808;28;19913;-68
2022/03/02 05:43:19;;;;;;;;;;;;;;;5.90;52.13;102377.53;5013901;28;19913;-67
2022/03/02 05:45:44;;;;;;;;;;;;;;;5.90;51.73;102381.06;5013824;28;19917;-68
2022/03/02 05:48:09;;;;;;;;;;;;;;;5.91;51.54;102369.78;5013889;28;19913;-68
2022/03/02 05:50:35;;;;;;;;;;;;;;;5.91;51.57;102368.84;5013724;28;20389;-68
2022/03/02 05:53:05;;;;;;;;;;;;;;;5.90;51.80;102374.91;5013690;28;19913;-67
2022/03/02 05:55:31;;;;;;;;;;;;;;;5.89;51.51;102386.22;5013641;28;19920;-67
2022/03/02 05:57:56;;;;;;;;;;;;;;;5.90;51.88;102374.91;5013370;28;19917;-67
2022/03/02 06:00:21;;;;;;;;;;;;;;;5.91;51.89;102380.25;5013785;28;20370;-67
2022/03/02 06:02:46;;;;;;;;;;;;;;;5.91;51.57;102379.31;5013551;28;19913;-68
2022/03/02 06:05:12;;;;;;;;;;;;;;;5.92;51.91;102375.94;5013489;28;19945;-68
2022/03/02 06:07:37;;;;;;;;;;;;;;;5.93;51.46;102380.38;5013429;28;19913;-68
2022/03/02 06:10:03;;;;;;;;;;;;;;;5.94;51.77;102383.06;5013586;28;20316;-68
2022/03/02 06:12:30;;;;;;;;;;;;;;;5.94;51.40;102376.91;5013380;28;19923;-68
2022/03/02 06:14:55;;;;;;;;;;;;;;;5.94;51.13;102383.06;5013465;28;20000;-68
2022/03/02 06:17:21;;;;;;;;;;;;;;;5.90;51.27;102382.78;5017295;28;20002;-68
2022/03/02 06:19:46;;;;;;;;;;;;;;;5.85;51.55;102384.25;5017154;28;20005;-68
2022/03/02 06:22:11;;;;;;;;;;;;;;;5.83;51.66;102386.81;5016862;28;20389;-68
2022/03/02 06:24:37;;;;;;;;;;;;;;;5.80;51.26;102388.34;5017443;28;19957;-68
2022/03/02 06:27:02;;;;;;;;;;;;;;;5.73;51.39;102381.84;5017419;28;19928;-68
2022/03/02 06:29:28;;;;;;;;;;;;;;;5.69;51.51;102390.38;5016599;28;19917;-68
2022/03/02 06:31:53;;;;;;;;;;;;;;;5.61;51.06;102386.41;5016532;28;19920;-68
2022/03/02 06:34:18;;;;;;;;;;;;;;;5.60;51.31;102388.13;5016325;28;19924;-68
2022/03/02 06:36:49;;;;;;;;;;;;;;;5.57;51.57;102389.69;5016513;28;19975;-67
2022/03/02 06:39:14;;;;;;;;;;;;;;;5.53;51.38;102380.78;5015915;28;20015;-68
2022/03/02 06:42:00;;;;;;;;;;;;;;;5.51;52.15;102392.88;5016286;28;20393;-68
2022/03/02 06:44:40;;;;;;;;;;;;;;;5.50;52.13;102385.84;5015666;28;20409;-68
2022/03/02 06:47:13;;;;;;;;;;;;;;;5.54;52.17;102390.44;5016265;28;19913;-68
2022/03/02 06:49:38;;;;;;;;;;;;;;;5.57;51.60;102387.06;5015926;28;19956;-68
2022/03/02 06:52:04;;;;;;;;;;;;;;;5.61;51.60;102396.91;5015903;28;20381;-68
2022/03/02 06:54:30;;;;;;;;;;;;;;;5.65;51.69;102404.13;5016076;28;19909;-68
2022/03/02 06:56:57;;;;;;;;;;;;;;;5.65;51.72;102401.50;5015680;28;19917;-68
2022/03/02 06:59:30;;;;;;;;;;;;;;;5.65;51.57;102402.44;5015273;28;19914;-68
2022/03/02 07:01:58;;;;;;;;;;;;;;;5.63;51.81;102398.81;5015758;28;19920;-68
2022/03/02 07:04:24;;;;;;;;;;;;;;;5.63;51.50;102401.44;5015762;28;19914;-68
2022/03/02 07:06:51;;;;;;;;;;;;;;;5.66;51.35;102403.34;5015574;28;19914;-68
2022/03/02 07:09:18;;;;;;;;;;;;;;;5.65;51.23;102402.44;5015927;28;20016;-68
2022/03/02 07:11:43;;;;;;;;;;;;;;;5.67;51.30;102407.75;5015580;28;19913;-68
2022/03/02 07:14:12;;;;;;;;;;;;;;;5.67;51.26;102403.41;5015714;28;19928;-68
2022/03/02 07:16:39;;;;;;;;;;;;;;;5.71;51.41;102399.25;5015498;28;19913;-68
2022/03/02 07:19:05;;;;;;;;;;;;;;;5.76;51.23;102406.53;5015236;28;19917;-68
2022/03/02 07:21:30;;;;;;;;;;;;;;;5.79;50.83;102408.44;5015244;28;20256;-68
2022/03/02 07:24:02;;;;;;;;;;;;;;;5.85;50.73;102407.88;5015413;28;19948;-68
2022/03/02 07:26:28;;;;;;;;;;;;;;;5.88;50.98;102408.94;5015314;28;19960;-68
2022/03/02 07:28:54;;;;;;;;;;;;;;;5.96;50.39;102412.03;5015178;28;19939;-67
2022/03/02 07:31:22;;;;;;;;;;;;;;;6.00;50.72;102417.53;5015181;28;20005;-68
2022/03/02 07:33:50;;;;;;;;;;;;;;;6.09;49.87;102410.97;5014992;28;20005;-68
2022/03/02 07:36:18;;;;;;;;;;;;;;;6.18;50.38;102412.34;5015235;28;20398;-68
2022/03/02 07:38:43;;;;;;;;;;;;;;;6.31;49.93;102415.66;5014978;28;19931;-67
2022/03/02 07:41:09;;;;;;;;;;;;;;;6.45;50.28;102412.91;5015182;28;20418;-67
2022/03/02 07:43:36;;;;;;;;;;;;;;;6.63;50.11;102405.09;5015033;28;19920;-67
2022/03/02 07:46:03;;;;;;;;;;;;;;;6.75;48.86;102400.47;5014900;28;19913;-67
2022/03/02 07:48:28;;;;;;;;;;;;;;;6.92;49.31;102398.69;5014872;28;19917;-67
2022/03/02 07:50:56;;;;;;;;;;;;;;;7.07;47.40;102395.06;5014796;28;20268;-67
2022/03/02 07:53:25;;;;;;;;;;;;;;;7.19;47.59;102391.28;5014991;28;19929;-67
2022/03/02 07:55:52;;;;;;;;;;;;;;;7.34;47.00;102391.13;5014772;28;19945;-67
2022/03/02 07:58:18;;;;;;;;;;;;;;;7.47;45.84;102395.25;5014329;28;19918;-68
2022/03/02 08:00:46;;;;;;;;;;;;;;;7.57;45.10;102391.34;4996899;28;19920;-67
2022/03/02 08:03:12;;;;;;;;;;;;;;;7.66;45.00;102389.13;5014603;28;19995;-67
2022/03/02 08:05:38;;;;;;;;;;;;;;;7.82;45.58;102380.25;5014511;28;20008;-67
2022/03/02 08:08:08;;;;;;;;;;;;;;;8.05;44.73;102390.13;5013634;28;19963;-67
2022/03/02 08:10:33;;;;;;;;;;;;;;;8.29;45.30;102383.31;4996803;28;19959;-67
2022/03/02 08:13:01;;;;;;;;;;;;;;;8.43;43.17;102380.41;5014316;28;19909;-68
2022/03/02 08:15:27;;;;;;;;;;;;;;;8.60;42.14;102386.41;5014349;28;19936;-68
2022/03/02 08:17:54;;;;;;;;;;;;;;;8.82;43.29;102385.59;5014025;28;19909;-68
2022/03/02 08:20:19;;;;;;;;;;;;;;;9.08;41.31;102382.34;5014428;28;19957;-67
2022/03/02 08:22:45;;;;;;;;;;;;;;;9.33;41.65;102380.69;5014368;28;19962;-68
2022/03/02 08:25:11;;;;;;;;;;;;;;;9.52;39.45;102383.25;5014397;28;19914;-68
2022/03/02 08:27:38;;;;;;;;;;;;;;;9.64;39.45;102375.81;5014119;28;19966;-68
2022/03/02 08:30:06;;;;;;;;;;;;;;;9.75;39.38;102379.75;5014521;28;19913;-69
2022/03/02 08:32:40;;;;;;;;;;;;;;;9.89;40.23;102376.75;5014083;28;20381;-69
2022/03/02 08:35:06;;;;;;;;;;;;;;;10.13;40.86;102372.38;5014223;28;20362;-67
2022/03/02 08:37:32;;;;;;;;;;;;;;;10.38;39.15;102375.97;5013933;28;19914;-68
2022/03/02 08:39:59;;;;;;;;;;;;;;;10.50;37.72;102369.38;5013466;28;20281;-68
2022/03/02 08:42:25;;;;;;;;;;;;;;;10.62;38.69;102363.63;4996085;28;19917;-68
2022/03/02 08:44:50;;;;;;;;;;;;;;;10.81;37.64;102361.63;5013811;28;19936;-68
2022/03/02 08:47:15;;;;;;;;;;;;;;;10.97;37.24;102359.53;5013863;28;19914;-68
2022/03/02 08:49:41;;;;;;;;;;;;;;;11.07;37.44;102357.19;5013840;28;19920;-69
2022/03/02 08:52:07;;;;;;;;;;;;;;;11.11;35.84;102357.34;5013886;28;19944;-69
2022/03/02 08:54:45;;;;;;;;;;;;;;;11.20;36.14;102365.56;5013793;28;20329;-68
2022/03/02 08:57:10;;;;;;;;;;;;;;;11.25;35.50;102365.72;5013374;28;20023;-68
2022/03/02 08:59:38;;;;;;;;;;;;;;;11.33;36.17;102368.63;5013534;28;20015;-69
2022/03/02 09:02:06;;;;;;;;;;;;;;;11.39;35.85;102366.16;5013379;28;19918;-69
2022/03/02 09:04:33;;;;;;;;;;;;;;;11.51;36.19;102367.44;5013713;28;19913;-69
2022/03/02 09:07:00;;;;;;;;;;;;;;;11.51;37.42;102367.44;5013574;28;19972;-69
2022/03/02 09:09:25;;;;;;;;;;;;;;;11.58;37.48;102360.59;5013626;28;19913;-69
2022/03/02 09:11:51;;;;;;;;;;;;;;;11.86;34.76;102359.75;5013452;28;19920;-69
2022/03/02 09:14:17;;;;;;;;;;;;;;;11.99;36.15;102359.25;4995790;28;19913;-69
2022/03/02 09:16:44;;;;;;;;;;;;;;;12.27;33.70;102360.91;5013357;28;19967;-68
2022/03/02 09:19:10;;;;;;;;;;;;;;;12.34;32.84;102364.66;5013311;28;19921;-69
2022/03/02 09:21:36;;;;;;;;;;;;;;;12.46;33.46;102357.03;5013502;28;20278;-69
2022/03/02 09:24:01;;;;;;;;;;;;;;;12.73;33.85;102350.66;4995640;28;19924;-69
2022/03/02 09:26:27;;;;;;;;;;;;;;;13.10;34.97;102349.81;5013294;28;19936;-69
2022/03/02 09:28:52;;;;;;;;;;;;;;;13.47;33.21;102354.28;5013278;28;19913;-68
2022/03/02 09:31:20;;;;;;;;;;;;;;;13.80;33.58;102345.28;5013062;28;20351;-70
2022/03/02 09:33:49;;;;;;;;;;;;;;;14.24;33.49;102343.53;5013276;28;19913;-69
2022/03/02 09:36:18;;;;;;;;;;;;;;;14.47;33.42;102340.41;5013261;28;19988;-70
2022/03/02 09:38:47;;;;;;;;;;;;;;;14.74;31.77;102334.75;5013066;28;20333;-70
2022/03/02 09:41:17;;;;;;;;;;;;;;;14.97;30.39;102336.00;5013425;28;19914;-70
2022/03/02 09:43:46;;;;;;;;;;;;;;;15.09;30.24;102334.44;5013107;28;19920;-69
2022/03/02 09:46:16;;;;;;;;;;;;;;;15.24;30.10;102324.88;5013073;28;20298;-69
2022/03/02 09:48:47;;;;;;;;;;;;;;;15.47;28.80;102322.59;5013364;28;19914;-70
2022/03/02 09:51:17;;;;;;;;;;;;;;;15.59;28.03;102321.88;5016643;28;19914;-70
2022/03/02 09:53:47;;;;;;;;;;;;;;;15.73;26.81;102324.75;5017688;28;19968;-71
2022/03/02 09:56:12;;;;;;;;;;;;;;;15.69;28.58;102315.81;5017072;28;19913;-69
2022/03/02 09:58:39;;;;;;;;;;;;;;;15.82;27.44;102321.31;5016781;28;20040;-69
2022/03/02 10:01:08;;;;;;;;;;;;;;;15.97;27.46;102326.81;5017179;28;20389;-70
2022/03/02 10:03:37;;;;;;;;;;;;;;;15.98;26.48;102320.63;5016981;28;19937;-71
2022/03/02 10:06:04;;;;;;;;;;;;;;;15.89;28.23;102316.06;5016316;28;19913;-70
2022/03/02 10:08:39;;;;;;;;;;;;;;;16.11;27.74;102319.00;5016657;28;19932;-70
2022/03/02 10:11:06;;;;;;;;;;;;;;;16.16;25.48;102314.59;5016701;28;20116;-70
2022/03/02 10:13:32;;;;;;;;;;;;;;;16.24;26.24;102319.16;5016865;28;19917;-70
2022/03/02 10:15:58;;;;;;;;;;;;;;;16.41;25.78;102319.34;5016668;28;19959;-70
2022/03/02 10:18:25;;;;;;;;;;;;;;;16.42;25.11;102317.56;5016794;28;19944;-70
2022/03/02 10:20:58;;;;;;;;;;;;;;;16.39;27.31;102315.72;5016641;28;19991;-69
2022/03/02 10:23:42;;;;;;;;;;;;;;;16.41;27.26;102322.00;5016627;28;19913;-70
2022/03/02 10:26:15;;;;;;;;;;;;;;;16.46;27.83;102316.72;5016517;28;19923;-71
2022/03/02 10:28:40;;;;;;;;;;;;;;;16.81;27.84;102309.06;5016398;28;20417;-70
2022/03/02 10:31:24;;;;;;;;;;;;;;;17.09;27.80;102314.63;5016545;28;19917;-69
2022/03/02 10:33:55;;;;;;;;;;;;;;;17.48;28.41;102311.31;5016363;28;19924;-71
2022/03/02 10:36:23;;;;;;;;;;;;;;;17.77;26.31;102303.44;5016114;28;19913;-69
2022/03/02 10:38:55;;;;;;;;;;;;;;;17.98;25.98;102302.66;5016289;28;20050;-70
2022/03/02 10:41:20;;;;;;;;;;;;;;;18.11;26.27;102304.47;5016247;28;19940;-71
2022/03/02 10:44:05;;;;;;;;;;;;;;;18.16;23.39;102291.13;5016185;28;20370;-69
2022/03/02 10:46:31;;;;;;;;;;;;;;;18.23;26.37;102293.81;5016367;28;19936;-69
2022/03/02 10:49:04;;;;;;;;;;;;;;;18.44;27.44;102290.28;5016163;28;20370;-71
2022/03/02 10:51:32;;;;;;;;;;;;;;;18.65;25.73;102296.53;5015956;28;19913;-70
2022/03/02 10:54:00;;;;;;;;;;;;;;;18.71;25.10;102294.81;5016127;28;19920;-69
2022/03/02 10:56:26;;;;;;;;;;;;;;;18.77;23.68;102294.81;5016174;28;20261;-69
2022/03/02 10:58:52;;;;;;;;;;;;;;;18.81;23.99;102287.66;5015641;28;19917;-69
2022/03/02 11:01:18;;;;;;;;;;;;;;;18.86;23.52;102291.22;5015464;28;19914;-69
2022/03/02 11:03:44;;;;;;;;;;;;;;;18.65;23.83;102284.03;5015586;28;19967;-69
2022/03/02 11:06:11;;;;;;;;;;;;;;;18.47;25.28;102284.94;5016277;28;19917;-70
2022/03/02 11:08:37;;;;;;;;;;;;;;;18.38;25.90;102290.28;5017325;28;19913;-71
2022/03/02 11:11:04;;;;;;;;;;;;;;;18.11;23.90;102291.09;5016524;28;19947;-71
2022/03/02 11:13:30;;;;;;;;;;;;;;;17.86;23.38;102286.53;5015992;28;20374;-69
2022/03/02 11:15:56;;;;;;;;;;;;;;;17.68;24.56;102285.56;5015837;28;20003;-70
2022/03/02 11:18:33;;;;;;;;;;;;;;;17.50;26.79;102277.47;4997744;28;19913;-70
2022/03/02 11:21:00;;;;;;;;;;;;;;;17.44;24.73;102272.97;4997870;28;19913;-70
2022/03/02 11:23:26;;;;;;;;;;;;;;;17.48;25.01;102279.25;5015595;28;19924;-70
2022/03/02 11:25:53;;;;;;;;;;;;;;;17.63;27.86;102273.94;5015481;28;19913;-71
2022/03/02 11:28:20;;;;;;;;;;;;;;;17.75;24.83;102265.13;4997757;28;20119;-70
2022/03/02 11:30:46;;;;;;;;;;;;;;;17.93;25.78;102265.19;5015309;28;19943;-71
2022/03/02 11:33:11;;;;;;;;;;;;;;;18.15;23.34;102263.44;5015134;28;19914;-69
2022/03/02 11:35:37;;;;;;;;;;;;;;;18.16;23.60;102257.25;5015401;28;20008;-70
2022/03/02 11:38:06;;;;;;;;;;;;;;;18.13;24.26;102251.88;5015168;28;19913;-69
2022/03/02 11:40:39;;;;;;;;;;;;;;;18.02;23.25;102256.28;5015159;28;20067;-68
2022/03/02 11:43:15;;;;;;;;;;;;;;;18.07;23.38;102250.94;5015158;28;19933;-68
2022/03/02 11:45:40;;;;;;;;;;;;;;;18.03;23.64;102239.38;4997249;28;19952;-70
2022/03/02 11:48:09;;;;;;;;;;;;;;;18.04;23.35;102240.28;5017069;28;20365;-68
2022/03/02 11:50:34;;;;;;;;;;;;;;;18.20;24.10;102237.63;5015670;28;19921;-70
2022/03/02 11:53:06;;;;;;;;;;;;;;;18.35;23.14;102243.88;5015393;28;19913;-69
2022/03/02 11:55:33;;;;;;;;;;;;;;;18.31;25.09;102242.97;5015104;28;19913;-69
2022/03/02 11:58:00;;;;;;;;;;;;;;;18.35;22.49;102236.75;5014566;28;20012;-69
2022/03/02 12:00:27;;;;;;;;;;;;;;;18.15;22.73;102236.69;5014619;28;19917;-69
2022/03/02 12:02:56;;;;;;;;;;;;;;;17.88;23.45;102229.53;5014855;28;19920;-69
2022/03/02 12:05:23;;;;;;;;;;;;;;;18.02;23.47;102237.56;5014698;28;20023;-69
2022/03/02 12:07:49;;;;;;;;;;;;;;;18.09;24.47;102223.31;5014517;28;20359;-68
2022/03/02 12:10:17;;;;;;;;;;;;;;;18.25;23.54;102224.25;5014585;28;19948;-70
2022/03/02 12:12:43;;;;;;;;;;;;;;;18.32;22.71;102217.09;5013900;28;19936;-70
2022/03/02 12:15:08;;;;;;;;;;;;;;;18.35;24.20;102211.75;5014201;28;20362;-70
2022/03/02 12:17:36;;;;;;;;;;;;;;;18.47;22.50;102214.44;5014533;28;19955;-68
2022/03/02 12:20:06;;;;;;;;;;;;;;;18.53;22.30;102214.44;5014402;28;19920;-69
2022/03/02 12:22:32;;;;;;;;;;;;;;;18.59;22.04;102206.41;5014306;28;19913;-69
2022/03/02 12:24:59;;;;;;;;;;;;;;;18.46;21.81;102207.31;5014474;28;19990;-70
2022/03/02 12:27:25;;;;;;;;;;;;;;;18.45;24.13;102197.47;5014215;28;19944;-70
2022/03/02 12:30:13;;;;;;;;;;;;;;;18.55;24.04;102190.34;5014078;28;19979;-69
2022/03/02 12:32:45;;;;;;;;;;;;;;;18.39;24.04;102189.47;4934658;29;20311;-69
2022/03/02 12:35:13;;;;;;;;;;;;;;;18.49;23.64;102181.41;4934507;29;19914;-68
2022/03/02 12:37:39;;;;;;;;;;;;;;;18.73;22.11;102180.53;4934419;29;19924;-68
2022/03/02 12:40:09;;;;;;;;;;;;;;;18.88;24.62;102171.56;4934520;29;19914;-69
2022/03/02 12:42:34;;;;;;;;;;;;;;;19.21;22.60;102170.59;4934471;29;20272;-69
2022/03/02 12:44:59;;;;;;;;;;;;;;;19.37;21.71;102160.69;4934500;29;19915;-69